Sherwood Park, Canada
Current Conditions -  °F | °C
As of 11:00 AM on Thursday 18 Dec 2014 (Local Time) from CYXD Reporting Station
Clear Clear  
Wind Chill: 18°   Ceiling: Unl
Heat Index: 18°   Visibility: 5mi
Dew Point: 16°   Wind: 0mph
Humidity: 93%   Direction: NA
Pressure: 29.84"   Gusts: NA
Location:  53.52°N, 113.32°W
Report Text: CYXD 181800Z AUTO 00000KT 5SM CLR M08/M09 A2984 RMK SLP147
Loading
Personal Weather Stations






























Interactive Weather Map New forecast layout! Learn more

10-Day Weather Forecast

Advertisements
Track Severe Weather on mobile